Time;durP1;ratioP1;P1;durP2;ratioP2;P2;SDS_P1;SDS_P2;PMS_P1;PMS_P2;Temp;Humidity;BMP_temperature;BMP_pressure;BME280_temperature;BME280_humidity;BME280_pressure;Samples;Min_cycle;Max_cycle;Signal;HPM_P1;HPM_P2
2023/08/29 00:02:11;;;;;;;5.88;3.97;;;;;;;25.90;43.89;98865.25;5051545;28;20017;-43
2023/08/29 00:04:37;;;;;;;5.82;3.80;;;;;;;25.87;44.15;98857.72;5051367;28;20393;-44
2023/08/29 00:07:03;;;;;;;6.28;3.67;;;;;;;25.91;44.11;98858.66;5051183;28;20456;-44
2023/08/29 00:09:29;;;;;;;6.93;3.92;;;;;;;25.94;43.97;98860.75;5051429;28;20161;-43
2023/08/29 00:11:55;;;;;;;7.47;3.75;;;;;;;25.93;44.23;98868.16;5051144;28;20021;-44
2023/08/29 00:14:21;;;;;;;6.82;3.85;;;;;;;26.12;43.89;98862.28;5050907;28;20071;-44
2023/08/29 00:16:46;;;;;;;4.63;3.45;;;;;;;26.12;43.07;98875.09;5050904;28;20040;-45
2023/08/29 00:19:14;;;;;;;8.25;3.50;;;;;;;25.89;43.81;98875.34;5050418;28;20111;-42
2023/08/29 00:21:40;;;;;;;4.47;3.50;;;;;;;25.93;43.71;98870.88;5050591;28;20020;-42
2023/08/29 00:24:06;;;;;;;4.70;3.78;;;;;;;25.96;43.75;98882.25;5049333;28;20527;-42
2023/08/29 00:26:31;;;;;;;6.30;3.65;;;;;;;25.84;43.81;98880.97;5050821;28;20032;-44
2023/08/29 00:28:57;;;;;;;4.88;3.45;;;;;;;25.94;43.72;98877.13;5050791;28;20043;-44
2023/08/29 00:31:22;;;;;;;6.00;3.67;;;;;;;26.11;43.25;98884.41;5050680;28;20063;-44
2023/08/29 00:33:48;;;;;;;5.15;3.40;;;;;;;25.87;43.55;98883.03;5050916;28;20036;-43
2023/08/29 00:36:13;;;;;;;6.65;3.78;;;;;;;25.39;44.76;98883.31;5050686;28;20420;-41
2023/08/29 00:38:38;;;;;;;5.45;3.70;;;;;;;25.36;44.88;98885.56;5050363;28;20029;-42
2023/08/29 00:41:04;;;;;;;7.40;3.67;;;;;;;25.30;45.30;98878.69;5050353;28;20045;-42
2023/08/29 00:43:29;;;;;;;5.28;4.00;;;;;;;25.31;45.03;98874.03;5050457;28;20440;-45
2023/08/29 00:45:55;;;;;;;7.57;4.18;;;;;;;25.39;44.60;98881.38;5050583;28;20021;-43
2023/08/29 00:48:21;;;;;;;5.15;3.90;;;;;;;25.50;44.69;98884.59;5050450;28;20029;-44
2023/08/29 00:50:47;;;;;;;5.65;3.90;;;;;;;25.43;44.76;98887.00;5050608;28;20028;-44
2023/08/29 00:53:14;;;;;;;6.50;4.28;;;;;;;25.26;44.66;98875.00;5050784;28;20044;-46
2023/08/29 00:55:39;;;;;;;6.18;4.00;;;;;;;25.30;44.91;98877.88;5051194;28;20021;-43
2023/08/29 00:58:05;;;;;;;7.65;4.45;;;;;;;25.18;45.33;98870.34;5050796;28;20369;-45
2023/08/29 01:00:31;;;;;;;9.35;4.20;;;;;;;25.36;44.86;98873.88;5050912;28;20396;-43
2023/08/29 01:02:58;;;;;;;8.45;4.25;;;;;;;25.04;45.32;98867.00;5050879;28;20444;-45
2023/08/29 01:05:24;;;;;;;6.78;4.03;;;;;;;25.10;45.35;98882.84;5050779;28;20075;-44
2023/08/29 01:07:56;;;;;;;6.95;4.03;;;;;;;25.28;44.58;98869.22;5050963;28;20100;-45
2023/08/29 01:10:39;;;;;;;6.68;4.57;;;;;;;25.16;45.02;98875.31;5051000;28;20025;-45
2023/08/29 01:13:29;;;;;;;5.93;4.15;;;;;;;25.17;44.83;98877.72;5050903;28;20025;-44
2023/08/29 01:16:00;;;;;;;6.30;4.22;;;;;;;24.86;45.86;98866.97;5050791;28;20116;-41
2023/08/29 01:18:30;;;;;;;7.95;4.53;;;;;;;24.85;45.81;98872.75;5050843;28;20029;-44
2023/08/29 01:21:02;;;;;;;6.15;4.13;;;;;;;24.88;45.69;98875.63;5050639;28;20480;-42
2023/08/29 01:23:46;;;;;;;7.68;4.50;;;;;;;25.00;45.30;98868.75;5050865;28;20370;-44
2023/08/29 01:26:16;;;;;;;9.20;4.28;;;;;;;24.92;45.39;98854.84;5049289;28;20302;-44
2023/08/29 01:28:46;;;;;;;8.68;4.60;;;;;;;24.92;45.61;98863.00;5050486;28;20033;-45
2023/08/29 01:31:12;;;;;;;5.50;3.90;;;;;;;24.85;45.92;98861.88;5050567;28;20032;-46
2023/08/29 01:33:39;;;;;;;5.25;3.88;;;;;;;24.95;45.56;98859.63;5050428;28;20691;-46
2023/08/29 01:36:05;;;;;;;5.60;4.07;;;;;;;24.90;45.68;98867.13;5050831;28;20025;-44
2023/08/29 01:38:31;;;;;;;5.97;3.85;;;;;;;25.06;45.30;98860.09;5050697;28;20056;-45
2023/08/29 01:40:56;;;;;;;6.50;3.58;;;;;;;24.94;45.40;98847.16;5050472;28;20481;-43
2023/08/29 01:43:22;;;;;;;6.35;3.67;;;;;;;24.78;45.67;98854.19;5050742;28;20029;-45
2023/08/29 01:45:47;;;;;;;8.88;4.03;;;;;;;24.78;45.72;98857.69;5050453;28;20032;-44
2023/08/29 01:48:13;;;;;;;7.75;4.10;;;;;;;24.70;46.04;98850.34;5050532;28;20040;-44
2023/08/29 01:50:40;;;;;;;5.60;3.90;;;;;;;24.82;45.91;98855.13;5050521;28;20053;-41
2023/08/29 01:53:07;;;;;;;6.32;3.92;;;;;;;24.65;46.05;98847.75;5050565;28;20032;-45
2023/08/29 01:55:33;;;;;;;6.28;4.03;;;;;;;24.39;46.69;98862.09;5050219;28;20036;-42
2023/08/29 01:57:59;;;;;;;5.30;4.10;;;;;;;24.28;47.16;98851.84;5050268;28;20059;-42
2023/08/29 02:00:26;;;;;;;6.63;3.88;;;;;;;24.15;47.26;98846.19;5050442;28;20429;-45
2023/08/29 02:02:51;;;;;;;6.88;4.20;;;;;;;24.14;47.33;98847.31;5050296;28;20088;-43
2023/08/29 02:05:16;;;;;;;6.07;4.25;;;;;;;24.10;47.51;98838.19;5050177;28;20444;-42
2023/08/29 02:07:42;;;;;;;7.35;4.30;;;;;;;23.99;47.71;98834.16;5049967;28;20025;-45
2023/08/29 02:10:08;;;;;;;6.20;4.03;;;;;;;23.84;48.30;98843.53;5050019;28;20032;-42
2023/08/29 02:12:34;;;;;;;7.80;3.85;;;;;;;23.94;47.97;98843.25;5049839;28;20028;-41
2023/08/29 02:15:00;;;;;;;7.13;4.20;;;;;;;24.00;47.80;98844.69;5049807;28;20039;-43
2023/08/29 02:17:26;;;;;;;6.90;4.13;;;;;;;24.08;47.73;98845.06;5050036;28;20017;-44
2023/08/29 02:19:51;;;;;;;6.45;4.70;;;;;;;24.19;47.33;98847.16;5050133;28;20027;-43
2023/08/29 02:22:17;;;;;;;8.80;4.50;;;;;;;24.09;47.74;98854.81;5049567;28;20423;-42
2023/08/29 02:24:42;;;;;;;8.73;4.85;;;;;;;24.01;48.02;98848.25;5049725;28;20063;-42
2023/08/29 02:27:08;;;;;;;8.65;4.40;;;;;;;23.74;48.72;98847.31;5049553;28;20033;-44
2023/08/29 02:29:33;;;;;;;7.15;4.53;;;;;;;23.52;48.99;98841.91;5049813;28;20025;-41
2023/08/29 02:31:59;;;;;;;7.35;4.80;;;;;;;23.49;49.30;98842.53;5050028;28;20155;-43
2023/08/29 02:34:24;;;;;;;7.45;4.82;;;;;;;23.43;50.03;98844.56;5049866;28;20013;-43
2023/08/29 02:36:50;;;;;;;6.82;4.40;;;;;;;23.35;49.66;98835.25;5049633;28;20032;-40
2023/08/29 02:39:16;;;;;;;8.15;4.80;;;;;;;23.32;49.88;98840.50;5049654;28;20117;-43
2023/08/29 02:41:41;;;;;;;7.93;4.68;;;;;;;23.21;50.11;98838.06;5051660;28;20057;-42
2023/08/29 02:44:07;;;;;;;6.78;4.25;;;;;;;23.31;49.80;98844.34;5053128;28;20029;-44
2023/08/29 02:46:32;;;;;;;8.20;4.47;;;;;;;23.27;49.92;98836.00;5053177;28;20036;-44
2023/08/29 02:48:58;;;;;;;7.78;4.68;;;;;;;23.05;50.57;98833.31;5053240;28;20137;-45
2023/08/29 02:51:23;;;;;;;7.80;4.40;;;;;;;22.80;51.11;98830.84;5053000;28;20510;-43
2023/08/29 02:53:48;;;;;;;7.32;4.75;;;;;;;22.91;51.13;98826.00;5052707;28;20519;-42
2023/08/29 02:56:14;;;;;;;8.18;4.45;;;;;;;22.91;50.91;98823.28;5052988;28;20029;-44
2023/08/29 02:58:41;;;;;;;6.40;4.78;;;;;;;22.83;51.04;98827.53;5052966;28;20035;-44
2023/08/29 03:01:11;;;;;;;7.93;5.00;;;;;;;22.82;51.38;98825.91;5052772;28;20028;-44
2023/08/29 03:03:37;;;;;;;7.30;4.72;;;;;;;22.98;51.15;98820.94;5052888;28;20029;-43
2023/08/29 03:06:02;;;;;;;7.18;4.80;;;;;;;23.18;50.32;98832.44;5051473;28;20039;-41
2023/08/29 03:08:28;;;;;;;8.70;4.32;;;;;;;22.92;50.95;98824.88;5053276;28;20036;-43
2023/08/29 03:10:53;;;;;;;5.68;3.83;;;;;;;22.66;51.91;98827.38;5053030;28;20119;-44
2023/08/29 03:13:19;;;;;;;5.97;4.22;;;;;;;22.60;51.79;98817.78;5052927;28;20021;-41
2023/08/29 03:15:45;;;;;;;5.00;3.80;;;;;;;22.67;51.61;98822.75;5052736;28;20119;-42
2023/08/29 03:18:11;;;;;;;9.68;6.50;;;;;;;22.65;52.08;98823.84;5052859;28;20195;-43
2023/08/29 03:20:40;;;;;;;7.35;4.20;;;;;;;22.69;51.94;98825.97;5052876;28;20100;-42
2023/08/29 03:23:05;;;;;;;;;;;;;;;22.61;52.36;98825.56;5052929;28;20095;-41
2023/08/29 03:25:31;;;;;;;7.63;4.00;;;;;;;22.76;51.85;98824.44;5052829;28;19909;-42
2023/08/29 03:27:56;;;;;;;6.70;4.40;;;;;;;22.86;51.46;98831.53;5052555;28;20051;-41
2023/08/29 03:30:22;;;;;;;5.07;4.03;;;;;;;22.87;51.52;98825.00;5052210;28;20033;-41
2023/08/29 03:32:50;;;;;;;7.57;3.80;;;;;;;22.90;51.51;98832.50;5052515;28;20028;-42
2023/08/29 03:35:16;;;;;;;7.03;3.83;;;;;;;22.84;51.59;98828.31;5052610;28;20055;-41
2023/08/29 03:37:41;;;;;;;8.25;3.92;;;;;;;22.72;51.77;98822.66;5052414;28;20053;-41
2023/08/29 03:40:07;;;;;;;8.95;3.97;;;;;;;22.71;51.88;98823.75;5052028;28;20024;-43
2023/08/29 03:42:33;;;;;;;5.43;3.88;;;;;;;22.92;51.40;98819.44;5052021;28;20029;-43
2023/08/29 03:44:58;;;;;;;10.18;4.10;;;;;;;22.93;51.30;98826.47;5051543;28;20138;-43
2023/08/29 03:47:24;;;;;;;9.75;4.63;;;;;;;22.83;51.42;98832.94;5052798;28;20021;-41
2023/08/29 03:49:49;;;;;;;4.88;3.83;;;;;;;22.87;51.50;98827.72;5052242;28;20503;-42
2023/08/29 03:52:26;;;;;;;6.30;4.40;;;;;;;23.08;50.76;98835.41;5050883;28;20035;-42
2023/08/29 03:54:58;;;;;;;6.50;4.50;;;;;;;23.08;50.88;98819.13;5052404;28;20044;-41
2023/08/29 03:57:24;;;;;;;7.57;5.32;;;;;;;22.96;51.08;98820.44;5052142;28;20025;-42
2023/08/29 03:59:50;;;;;;;8.63;3.83;;;;;;;23.14;50.67;98815.19;5051769;28;20084;-41
2023/08/29 04:02:15;;;;;;;6.15;3.85;;;;;;;23.24;50.42;98820.34;5052023;28;20108;-42
2023/08/29 04:04:44;;;;;;;5.60;4.20;;;;;;;23.43;50.17;98814.69;5052158;28;20086;-42
2023/08/29 04:07:10;;;;;;;7.38;4.05;;;;;;;23.11;50.59;98813.88;5051892;28;20028;-43
2023/08/29 04:09:36;;;;;;;7.45;4.03;;;;;;;23.54;49.78;98817.97;5051949;28;20078;-42
2023/08/29 04:12:02;;;;;;;6.55;4.25;;;;;;;23.60;49.66;98816.72;5051980;28;20028;-42
2023/08/29 04:14:27;;;;;;;5.78;4.03;;;;;;;23.43;49.65;98812.78;5051865;28;20013;-41
2023/08/29 04:16:53;;;;;;;13.35;7.85;;;;;;;23.59;49.70;98820.56;5051979;28;20032;-42
2023/08/29 04:19:18;;;;;;;7.75;4.10;;;;;;;23.76;49.18;98817.09;5051736;28;20025;-42
2023/08/29 04:21:43;;;;;;;7.00;3.95;;;;;;;23.81;49.19;98819.72;5051898;28;20021;-42
2023/08/29 04:24:09;;;;;;;8.65;3.97;;;;;;;24.01;48.73;98826.50;5051649;28;20025;-43
2023/08/29 04:26:35;;;;;;;7.43;3.97;;;;;;;23.93;48.82;98829.97;5051734;28;20068;-43
2023/08/29 04:29:00;;;;;;;7.20;3.75;;;;;;;24.13;48.52;98818.53;5051786;28;20013;-42
2023/08/29 04:31:26;;;;;;;5.95;4.10;;;;;;;24.50;47.42;98834.59;5051905;28;20017;-41
2023/08/29 04:33:51;;;;;;;5.97;4.00;;;;;;;24.58;47.94;98834.66;5051594;28;20100;-42
2023/08/29 04:36:17;;;;;;;7.07;4.18;;;;;;;24.66;47.63;98818.66;5051740;28;20487;-43
2023/08/29 04:38:47;;;;;;;6.50;4.10;;;;;;;24.92;46.48;98811.28;5052160;28;20039;-42
2023/08/29 04:41:13;;;;;;;5.07;3.80;;;;;;;25.34;45.43;98805.31;5051296;28;20052;-41
2023/08/29 04:43:39;;;;;;;8.38;3.63;;;;;;;25.63;44.63;98809.25;5051403;28;20036;-42
2023/08/29 04:46:07;;;;;;;6.90;3.90;;;;;;;25.98;43.76;98809.91;5051474;28;20441;-42
2023/08/29 04:48:33;;;;;;;6.45;3.60;;;;;;;26.13;43.78;98814.00;5051512;28;20090;-43
2023/08/29 04:50:59;;;;;;;6.32;3.70;;;;;;;26.10;43.33;98820.94;5051669;28;20103;-41
2023/08/29 04:53:25;;;;;;;9.40;3.90;;;;;;;26.15;43.44;98817.22;5051598;28;20052;-41
2023/08/29 04:56:01;;;;;;;8.48;3.63;;;;;;;26.28;43.32;98831.72;5051441;28;20020;-43
2023/08/29 04:58:28;;;;;;;5.40;3.70;;;;;;;26.49;42.59;98829.81;5051194;28;20017;-43
2023/08/29 05:00:54;;;;;;;7.45;3.80;;;;;;;26.49;42.86;98835.28;5051544;28;20032;-42
2023/08/29 05:03:21;;;;;;;9.63;4.75;;;;;;;26.88;42.34;98829.72;5050974;28;20369;-42
2023/08/29 05:05:46;;;;;;;6.75;4.05;;;;;;;26.96;42.30;98836.22;5050865;28;20052;-41
2023/08/29 05:08:12;;;;;;;8.52;3.70;;;;;;;27.34;41.15;98827.88;5051187;28;20077;-42
2023/08/29 05:10:37;;;;;;;5.13;3.90;;;;;;;27.11;41.58;98832.88;5051093;28;20024;-42
2023/08/29 05:13:03;;;;;;;6.97;4.10;;;;;;;27.07;41.59;98829.22;5050197;28;20496;-41
2023/08/29 05:15:29;;;;;;;9.82;4.10;;;;;;;27.05;41.83;98834.22;5050419;28;20025;-41
2023/08/29 05:17:54;;;;;;;7.78;3.75;;;;;;;27.11;42.06;98833.69;5050282;28;20040;-42
2023/08/29 05:20:19;;;;;;;12.88;4.53;;;;;;;27.78;40.53;98832.84;5050049;28;20029;-43
2023/08/29 05:22:45;;;;;;;5.70;4.55;;;;;;;27.64;40.68;98831.22;5050077;28;20025;-43
2023/08/29 05:25:10;;;;;;;7.50;4.60;;;;;;;27.82;40.71;98833.78;5050453;28;20021;-42
2023/08/29 05:27:36;;;;;;;9.38;4.30;;;;;;;27.81;40.34;98829.44;5050221;28;20053;-41
2023/08/29 05:30:03;;;;;;;6.25;4.20;;;;;;;27.97;40.39;98832.31;5050018;28;20029;-43
2023/08/29 05:32:28;;;;;;;8.25;4.60;;;;;;;28.21;39.91;98834.25;5049559;28;20167;-41
2023/08/29 05:34:54;;;;;;;9.18;4.47;;;;;;;28.48;39.39;98835.47;5050126;28;20021;-42
2023/08/29 05:37:19;;;;;;;6.13;4.30;;;;;;;28.76;38.71;98838.28;5049993;28;20024;-42
2023/08/29 05:39:45;;;;;;;7.60;4.65;;;;;;;28.37;39.43;98823.41;5050190;28;20036;-43
2023/08/29 05:42:11;;;;;;;9.00;4.90;;;;;;;28.57;38.71;98816.22;5049827;28;20124;-45
2023/08/29 05:44:38;;;;;;;9.90;4.78;;;;;;;28.90;37.91;98806.97;5049944;28;20360;-43
2023/08/29 05:47:03;;;;;;;6.88;4.72;;;;;;;28.78;38.26;98816.81;5048300;28;20044;-45
2023/08/29 05:49:29;;;;;;;9.88;4.82;;;;;;;28.94;38.40;98811.44;5050004;28;20429;-44
2023/08/29 05:51:54;;;;;;;8.45;4.80;;;;;;;29.13;38.28;98819.00;5049909;28;20024;-41
2023/08/29 05:54:20;;;;;;;7.20;4.55;;;;;;;29.58;37.43;98826.03;5049936;28;20029;-44
2023/08/29 05:56:45;;;;;;;10.45;5.20;;;;;;;29.67;37.40;98825.09;5050036;28;20058;-42
2023/08/29 05:59:10;;;;;;;9.45;5.20;;;;;;;29.82;36.90;98822.38;5050002;28;20100;-42
2023/08/29 06:01:36;;;;;;;10.73;5.25;;;;;;;30.47;36.11;98812.91;5049871;28;20461;-43
2023/08/29 06:04:04;;;;;;;8.88;5.13;;;;;;;30.94;34.90;98822.94;5049932;28;20033;-43
2023/08/29 06:06:31;;;;;;;9.00;5.53;;;;;;;30.77;35.24;98824.13;5048635;28;20453;-44
2023/08/29 06:08:57;;;;;;;7.72;5.47;;;;;;;30.49;35.32;98823.53;5049493;28;20370;-47
2023/08/29 06:11:22;;;;;;;9.10;5.28;;;;;;;30.77;35.27;98823.34;5048937;28;20461;-43
2023/08/29 06:13:48;;;;;;;12.30;5.97;;;;;;;30.88;34.98;98823.53;5049671;28;20044;-45
2023/08/29 06:16:14;;;;;;;9.95;5.43;;;;;;;31.34;33.88;98818.97;5051499;28;20047;-42
2023/08/29 06:18:39;;;;;;;11.00;5.85;;;;;;;30.96;34.44;98812.38;5053437;28;20067;-42
2023/08/29 06:21:05;;;;;;;10.63;5.95;;;;;;;31.01;34.42;98808.53;5053902;28;20024;-45
2023/08/29 06:23:31;;;;;;;10.13;6.03;;;;;;;31.21;33.98;98806.56;5052900;28;20044;-43
2023/08/29 06:25:56;;;;;;;9.35;5.68;;;;;;;31.69;33.72;98820.78;5051261;28;20047;-43
2023/08/29 06:28:22;;;;;;;9.68;5.30;;;;;;;31.84;33.31;98807.28;5051315;28;20235;-44
2023/08/29 06:30:47;;;;;;;10.68;5.40;;;;;;;31.72;33.33;98811.81;5050984;28;20107;-42
2023/08/29 06:33:13;;;;;;;10.32;5.20;;;;;;;31.41;33.76;98796.31;5051659;28;20083;-43
2023/08/29 06:35:38;;;;;;;9.05;4.85;;;;;;;31.59;33.52;98798.59;5052053;28;20028;-46
2023/08/29 06:38:04;;;;;;;19.15;5.45;;;;;;;31.90;33.65;98798.31;5052226;28;20028;-44
2023/08/29 06:40:29;;;;;;;12.07;5.20;;;;;;;31.75;33.64;98804.75;5051800;28;20160;-44
2023/08/29 06:42:55;;;;;;;10.20;4.75;;;;;;;31.91;33.20;98810.09;5051852;28;20036;-44
2023/08/29 06:45:20;;;;;;;9.40;5.20;;;;;;;31.76;33.93;98804.41;5051369;28;20078;-45
2023/08/29 06:47:46;;;;;;;7.20;4.38;;;;;;;32.26;32.97;98798.88;5052110;28;20103;-45
2023/08/29 06:50:12;;;;;;;8.63;5.03;;;;;;;32.65;32.62;98793.16;5051961;28;20032;-44
2023/08/29 06:52:37;;;;;;;9.98;5.00;;;;;;;32.66;32.11;98794.72;5052159;28;20029;-45
2023/08/29 06:55:03;;;;;;;13.10;5.35;;;;;;;32.64;31.62;98797.06;5052005;28;20032;-42
2023/08/29 06:57:28;;;;;;;9.18;4.60;;;;;;;32.55;32.04;98791.00;5051983;28;20023;-44
2023/08/29 06:59:54;;;;;;;8.82;5.03;;;;;;;32.71;31.73;98790.81;5052958;28;20116;-44
2023/08/29 07:02:19;;;;;;;10.82;5.00;;;;;;;32.70;31.40;98801.06;5053734;28;20036;-42
2023/08/29 07:04:44;;;;;;;11.35;5.20;;;;;;;33.25;31.24;98789.47;5053244;28;20031;-43
2023/08/29 07:07:10;;;;;;;8.35;4.60;;;;;;;33.52;30.98;98783.81;5053275;28;20388;-42
2023/08/29 07:09:35;;;;;;;13.63;4.75;;;;;;;33.52;31.11;98778.31;5053372;28;20033;-41
2023/08/29 07:12:00;;;;;;;8.63;4.95;;;;;;;33.53;30.25;98777.16;5053101;28;20108;-44
2023/08/29 07:14:26;;;;;;;11.60;5.18;;;;;;;33.62;30.58;98785.84;5052697;28;20385;-42
2023/08/29 07:16:51;;;;;;;10.25;5.32;;;;;;;34.00;30.40;98788.53;5052631;28;20033;-42
2023/08/29 07:19:17;;;;;;;8.57;5.03;;;;;;;33.69;30.07;98785.94;5052556;28;20183;-44
2023/08/29 07:21:42;;;;;;;8.60;5.10;;;;;;;34.21;29.04;98783.16;5052337;28;20029;-43
2023/08/29 07:24:07;;;;;;;10.27;5.15;;;;;;;34.12;29.18;98788.25;5052756;28;20148;-43
2023/08/29 07:26:33;;;;;;;7.00;5.28;;;;;;;34.12;29.25;98787.41;5051956;28;20507;-44
2023/08/29 07:28:58;;;;;;;10.18;5.40;;;;;;;34.32;29.17;98785.22;5052469;28;20029;-44
2023/08/29 07:31:24;;;;;;;8.30;5.30;;;;;;;34.06;29.21;98787.81;5052183;28;20021;-46
2023/08/29 07:33:49;;;;;;;11.70;5.47;;;;;;;34.26;29.67;98787.53;5052224;28;20517;-43
2023/08/29 07:36:15;;;;;;;7.85;5.38;;;;;;;34.41;28.88;98788.41;5051887;28;20032;-43
2023/08/29 07:38:42;;;;;;;7.40;5.28;;;;;;;34.65;28.94;98787.75;5052281;28;20064;-43
2023/08/29 07:41:07;;;;;;;10.10;6.47;;;;;;;34.35;29.06;98793.53;5051600;28;20119;-43
2023/08/29 07:43:33;;;;;;;9.98;5.80;;;;;;;34.68;28.76;98788.94;5051824;28;20041;-44
2023/08/29 07:45:58;;;;;;;9.55;6.28;;;;;;;34.62;28.22;98790.47;5052305;28;20075;-45
2023/08/29 07:48:24;;;;;;;11.90;6.55;;;;;;;34.75;28.21;98790.94;5052472;28;20033;-45
2023/08/29 07:50:49;;;;;;;11.27;6.70;;;;;;;34.88;27.59;98781.13;5051822;28;20029;-43
2023/08/29 07:53:15;;;;;;;9.68;6.68;;;;;;;34.87;28.34;98779.53;5051966;28;20012;-43
2023/08/29 07:55:44;;;;;;;9.82;6.75;;;;;;;35.01;27.73;98771.31;5051893;28;20420;-47
2023/08/29 07:58:10;;;;;;;9.48;6.82;;;;;;;35.40;27.74;98772.56;5051747;28;20025;-43
2023/08/29 08:00:36;;;;;;;12.52;7.15;;;;;;;35.37;27.57;98767.81;5051784;28;20162;-43
2023/08/29 08:03:03;;;;;;;9.88;7.55;;;;;;;34.74;27.39;98764.50;5051461;28;20021;-43
2023/08/29 08:05:28;;;;;;;12.70;7.22;;;;;;;34.50;28.08;98758.47;5050566;28;20378;-44
2023/08/29 08:07:55;;;;;;;12.18;7.57;;;;;;;34.79;27.96;98764.91;5051612;28;20036;-43
2023/08/29 08:10:21;;;;;;;12.85;8.23;;;;;;;35.04;28.00;98759.44;5051301;28;20104;-43
2023/08/29 08:12:47;;;;;;;11.95;8.05;;;;;;;35.41;27.16;98754.78;5051494;28;20408;-46
2023/08/29 08:15:13;;;;;;;10.52;8.02;;;;;;;35.51;27.44;98753.19;5051669;28;20043;-44
2023/08/29 08:17:39;;;;;;;12.68;8.18;;;;;;;35.90;26.60;98753.19;5051258;28;20025;-43
2023/08/29 08:20:08;;;;;;;9.55;7.72;;;;;;;35.93;26.35;98740.50;5051605;28;20028;-42
2023/08/29 08:22:38;;;;;;;12.05;7.75;;;;;;;35.82;26.79;98735.03;5051368;28;20121;-43
2023/08/29 08:25:04;;;;;;;11.05;7.40;;;;;;;35.77;27.13;98718.81;5051251;28;20111;-43
2023/08/29 08:27:29;;;;;;;12.70;9.02;;;;;;;35.79;26.52;98721.97;5051203;28;20021;-43
2023/08/29 08:29:56;;;;;;;21.95;12.52;;;;;;;34.69;27.68;98720.69;5051246;28;20028;-44
2023/08/29 08:32:22;;;;;;;17.20;13.05;;;;;;;33.91;28.99;98711.63;5051299;28;20117;-43
2023/08/29 08:34:47;;;;;;;16.38;12.63;;;;;;;34.43;28.34;98709.53;5051373;28;20103;-44
2023/08/29 08:37:12;;;;;;;19.25;12.68;;;;;;;34.83;28.08;98698.63;5051241;28;20039;-43
2023/08/29 08:39:38;;;;;;;17.25;12.63;;;;;;;35.12;27.85;98706.94;5050848;28;20113;-44
2023/08/29 08:42:03;;;;;;;17.63;13.43;;;;;;;34.27;28.18;98715.41;5050927;28;20443;-45
2023/08/29 08:44:32;;;;;;;17.05;13.32;;;;;;;34.37;28.85;98713.84;5051188;28;20032;-44
2023/08/29 08:46:58;;;;;;;18.63;13.70;;;;;;;34.77;27.68;98719.53;5051234;28;20040;-44
2023/08/29 08:49:25;;;;;;;18.33;12.75;;;;;;;34.93;27.33;98713.63;5050978;28;20037;-44
2023/08/29 08:51:52;;;;;;;17.25;12.90;;;;;;;35.46;26.82;98704.59;5051316;28;20029;-45
2023/08/29 08:54:18;;;;;;;16.98;13.25;;;;;;;35.76;26.62;98704.19;5051480;28;20101;-43
2023/08/29 08:56:46;;;;;;;19.23;13.35;;;;;;;35.91;26.14;98696.66;5051443;28;20111;-44
2023/08/29 08:59:12;;;;;;;17.20;13.63;;;;;;;36.21;26.18;98700.91;5050206;28;20046;-47
2023/08/29 09:01:38;;;;;;;18.45;14.07;;;;;;;36.19;26.46;98695.81;5050297;28;20029;-43
2023/08/29 09:04:03;;;;;;;20.30;13.82;;;;;;;35.93;26.74;98699.81;5051027;28;20032;-44
2023/08/29 09:06:30;;;;;;;18.02;12.75;;;;;;;34.93;27.79;98684.03;5050812;28;20029;-44
2023/08/29 09:09:24;;;;;;;19.90;13.77;;;;;;;34.21;28.37;98680.25;5050698;28;20124;-43
2023/08/29 09:11:55;;;;;;;16.27;13.30;;;;;;;34.74;27.96;98684.41;5051008;28;20401;-44
2023/08/29 09:14:21;;;;;;;20.10;13.15;;;;;;;34.63;27.62;98682.38;5051005;28;20048;-43
2023/08/29 09:16:52;;;;;;;19.98;13.50;;;;;;;35.05;27.51;98674.56;5050699;28;20036;-44
2023/08/29 09:19:20;;;;;;;17.40;13.55;;;;;;;34.93;27.47;98667.44;5050829;28;20025;-44
2023/08/29 09:21:45;;;;;;;17.80;13.13;;;;;;;35.04;27.08;98659.94;5051046;28;20130;-43
2023/08/29 09:24:14;;;;;;;15.85;12.18;;;;;;;34.81;27.80;98654.81;5050767;28;20488;-44
2023/08/29 09:26:41;;;;;;;17.88;11.98;;;;;;;34.89;27.66;98643.78;5050337;28;20056;-42
2023/08/29 09:29:20;;;;;;;15.95;11.65;;;;;;;35.28;27.54;98637.47;5051016;28;20459;-43
2023/08/29 09:31:49;;;;;;;15.10;10.40;;;;;;;35.60;26.61;98643.75;5050979;28;20048;-43
2023/08/29 09:34:30;;;;;;;15.27;10.30;;;;;;;35.86;26.95;98640.94;5051011;28;20033;-44
2023/08/29 09:36:59;;;;;;;12.73;9.38;;;;;;;35.98;26.73;98637.72;5050042;28;20106;-43
2023/08/29 09:39:26;;;;;;;12.77;8.85;;;;;;;35.37;27.68;98630.34;5050652;28;20381;-45
2023/08/29 09:41:59;;;;;;;14.23;9.75;;;;;;;35.77;27.36;98622.75;5050138;28;20141;-43
2023/08/29 09:44:25;;;;;;;9.73;8.20;;;;;;;35.84;26.60;98615.66;5050970;28;20029;-44
2023/08/29 09:46:50;;;;;;;10.52;7.82;;;;;;;35.48;26.55;98608.19;5050896;28;20028;-45
2023/08/29 09:49:16;;;;;;;10.90;7.90;;;;;;;35.29;26.96;98603.91;5050991;28;20400;-43
2023/08/29 09:51:42;;;;;;;11.15;6.38;;;;;;;35.71;26.79;98601.44;5053708;28;20033;-43
2023/08/29 09:54:10;;;;;;;11.15;5.72;;;;;;;35.90;26.51;98602.97;5054307;28;20396;-44
2023/08/29 09:56:41;;;;;;;8.18;5.53;;;;;;;36.15;26.06;98595.31;5054330;28;20024;-47
2023/08/29 09:59:12;;;;;;;12.80;5.47;;;;;;;36.29;26.22;98600.03;5054297;28;20087;-46
2023/08/29 10:01:42;;;;;;;5.63;4.50;;;;;;;36.37;26.09;98590.47;5053633;28;20028;-42
2023/08/29 10:04:11;;;;;;;10.25;4.93;;;;;;;36.69;25.62;98586.72;5054422;28;20021;-42
2023/08/29 10:06:38;;;;;;;5.88;4.75;;;;;;;36.77;25.64;98568.06;5053972;28;20083;-44
2023/08/29 10:09:05;;;;;;;8.23;5.05;;;;;;;36.63;26.04;98573.69;5054182;28;20086;-46
2023/08/29 10:11:31;;;;;;;7.32;5.20;;;;;;;36.64;26.39;98561.41;5053963;28;20033;-43
2023/08/29 10:13:58;;;;;;;7.13;5.60;;;;;;;37.07;25.78;98561.84;5054131;28;20025;-43
2023/08/29 10:16:25;;;;;;;5.67;4.27;;;;;;;37.28;25.33;98548.97;5054050;28;20032;-42
2023/08/29 10:18:51;;;;;;;5.78;4.25;;;;;;;37.11;25.59;98537.66;5053770;28;20029;-43
2023/08/29 10:21:21;;;;;;;9.30;4.40;;;;;;;37.10;25.62;98541.63;5053875;28;20021;-45
2023/08/29 10:23:49;;;;;;;10.70;4.80;;;;;;;37.44;26.02;98531.78;5054067;28;20142;-45
2023/08/29 10:26:17;;;;;;;5.72;4.25;;;;;;;37.57;25.18;98524.50;5053681;28;20098;-46
2023/08/29 10:28:43;;;;;;;8.00;4.70;;;;;;;37.89;25.09;98523.28;5053947;28;20092;-47
2023/08/29 10:31:10;;;;;;;8.05;4.05;;;;;;;37.62;24.95;98512.94;5053567;28;20755;-47
2023/08/29 10:33:36;;;;;;;4.70;4.20;;;;;;;37.75;24.76;98511.19;5053578;28;20425;-44
2023/08/29 10:36:03;;;;;;;7.38;4.90;;;;;;;37.86;25.50;98508.28;5054074;28;20100;-43
2023/08/29 10:38:30;;;;;;;7.18;4.70;;;;;;;38.20;24.87;98501.88;5053853;28;20480;-44
2023/08/29 10:41:09;;;;;;;6.72;4.60;;;;;;;38.50;24.65;98489.88;5053446;28;20532;-45
2023/08/29 10:43:35;;;;;;;6.75;4.25;;;;;;;38.45;24.68;98498.69;5053300;28;20036;-44
2023/08/29 10:46:10;;;;;;;7.05;4.60;;;;;;;38.65;24.70;98496.00;5053793;28;20082;-44
2023/08/29 10:48:44;;;;;;;7.18;4.63;;;;;;;38.78;23.82;98485.03;5053452;28;20028;-45
2023/08/29 10:51:11;;;;;;;6.10;4.15;;;;;;;38.95;23.76;98485.94;5053687;28;20086;-42
2023/08/29 10:53:37;;;;;;;8.10;4.35;;;;;;;39.14;23.42;98495.53;5053822;28;20021;-44
2023/08/29 10:56:07;;;;;;;8.48;4.38;;;;;;;38.81;23.37;98489.00;5053406;28;20051;-45
2023/08/29 10:58:38;;;;;;;6.80;4.50;;;;;;;38.95;23.30;98485.94;5053816;28;20033;-43
2023/08/29 11:01:05;;;;;;;6.15;4.43;;;;;;;38.82;23.84;98484.97;5052680;28;20035;-43
2023/08/29 11:03:51;;;;;;;8.93;4.47;;;;;;;39.20;23.06;98488.25;5052874;28;20104;-43
2023/08/29 11:06:22;;;;;;;10.18;4.85;;;;;;;39.20;23.57;98485.47;5052749;28;20028;-46
2023/08/29 11:08:48;;;;;;;6.38;4.63;;;;;;;38.97;23.22;98475.16;5052698;28;20025;-44
2023/08/29 11:11:21;;;;;;;6.68;4.50;;;;;;;38.70;22.37;98475.28;5052844;28;20413;-44
2023/08/29 11:14:02;;;;;;;6.25;4.13;;;;;;;38.81;22.45;98470.31;5052839;28;20025;-45
2023/08/29 11:16:35;;;;;;;7.78;4.03;;;;;;;39.04;22.35;98465.94;5052992;28;20036;-48
2023/08/29 11:19:14;;;;;;;6.10;4.50;;;;;;;39.39;22.39;98458.84;5052553;28;20036;-44
2023/08/29 11:21:48;;;;;;;10.68;6.78;;;;;;;39.68;22.13;98450.72;5052902;28;20071;-44
2023/08/29 11:24:14;;;;;;;7.95;5.57;;;;;;;39.77;21.98;98452.13;5052525;28;20052;-45
2023/08/29 11:26:43;;;;;;;6.20;4.40;;;;;;;39.69;21.97;98455.06;5052720;28;20421;-46
2023/08/29 11:29:08;;;;;;;6.78;4.25;;;;;;;39.46;21.40;98455.19;5052640;28;20131;-44
2023/08/29 11:31:44;;;;;;;8.30;4.50;;;;;;;38.82;22.71;98454.41;5052526;28;20111;-45